Time,TemperatureF,DewpointF,PressureIn,WindDirection,WindDirectionDegrees,WindSpeedMPH,WindSpeedGustMPH,Humidity,HourlyPrecipIn,Conditions,Clouds,dailyrainin,SoftwareType,DateUTC
2013-02-25 00:00:00,31.7,29.9,29.91,NW,315,4.0,7.0,93,0.00,,,0.00,WUHU216DAVISVP2,2013-02-25 05:00:00,
2013-02-25 00:05:00,31.8,29.7,29.91,NW,309,3.0,7.0,92,0.00,,,0.00,WUHU216DAVISVP2,2013-02-25 05:05:00,
2013-02-25 00:10:00,31.8,29.7,29.91,WNW,295,2.0,6.0,92,0.00,,,0.00,WUHU216DAVISVP2,2013-02-25 05:10:00,
2013-02-25 00:15:00,31.8,29.7,29.91,West,259,2.0,5.0,92,0.00,,,0.00,WUHU216DAVISVP2,2013-02-25 05:15:00,
2013-02-25 00:21:00,31.8,29.7,29.91,NW,309,2.0,5.0,92,0.00,,,0.00,WUHU216DAVISVP2,2013-02-25 05:21:00,
2013-02-25 00:26:00,31.9,29.8,29.91,NW,306,1.0,6.0,92,0.00,,,0.00,WUHU216DAVISVP2,2013-02-25 05:26:00,
2013-02-25 00:31:00,31.9,29.8,29.91,NW,304,3.0,6.0,92,0.00,,,0.00,WUHU216DAVISVP2,2013-02-25 05:31:00,
2013-02-25 00:36:00,32.0,29.6,29.92,WNW,294,2.0,7.0,91,0.00,,,0.00,WUHU216DAVISVP2,2013-02-25 05:36:00,
2013-02-25 00:41:00,32.0,29.6,29.92,WNW,289,5.0,7.0,91,0.00,,,0.00,WUHU216DAVISVP2,2013-02-25 05:41:00,
2013-02-25 00:46:00,32.0,29.6,29.92,WNW,300,4.0,6.0,91,0.00,,,0.00,WUHU216DAVISVP2,2013-02-25 05:46:00,
2013-02-25 00:51:00,32.1,29.5,29.92,NW,314,5.0,10.0,90,0.00,,,0.00,WUHU216DAVISVP2,2013-02-25 05:51:00,
2013-02-25 00:56:00,32.1,29.5,29.92,NW,304,3.0,10.0,90,0.00,,,0.00,WUHU216DAVISVP2,2013-02-25 05:56:00,
2013-02-25 01:01:00,32.1,29.5,29.93,NW,319,3.0,9.0,90,0.00,,,0.00,WUHU216DAVISVP2,2013-02-25 06:01:00,
2013-02-25 01:06:00,32.1,29.5,29.93,NW,311,2.0,9.0,90,0.00,,,0.00,WUHU216DAVISVP2,2013-02-25 06:06:00,
2013-02-25 01:11:00,32.1,29.5,29.93,West,274,2.0,8.0,90,0.00,,,0.00,WUHU216DAVISVP2,2013-02-25 06:11:00,
2013-02-25 01:16:00,32.1,29.5,29.93,NNW,342,7.0,8.0,90,0.00,,,0.00,WUHU216DAVISVP2,2013-02-25 06:16:00,
2013-02-25 01:21:00,32.1,29.5,29.93,NW,307,3.0,8.0,90,0.00,,,0.00,WUHU216DAVISVP2,2013-02-25 06:21:00,
2013-02-25 01:31:00,32.0,29.4,29.94,WNW,291,1.0,6.0,90,0.00,,,0.00,WUHU216DAVISVP2,2013-02-25 06:31:00,
2013-02-25 01:36:00,32.0,29.4,29.94,West,276,1.0,4.0,90,0.00,,,0.00,WUHU216DAVISVP2,2013-02-25 06:36:00,
2013-02-25 01:41:00,32.0,29.4,29.94,NW,321,2.0,4.0,90,0.00,,,0.00,WUHU216DAVISVP2,2013-02-25 06:41:00,
2013-02-25 01:46:00,31.9,29.3,29.93,NW,304,5.0,5.0,90,0.00,,,0.00,WUHU216DAVISVP2,2013-02-25 06:46:00,
2013-02-25 01:51:00,31.9,29.3,29.93,NW,314,4.0,7.0,90,0.00,,,0.00,WUHU216DAVISVP2,2013-02-25 06:51:00,
2013-02-25 01:56:00,31.7,29.1,29.94,NW,321,3.0,7.0,90,0.00,,,0.00,WUHU216DAVISVP2,2013-02-25 06:56:00,
2013-02-25 02:01:00,31.6,29.0,29.93,NW,315,3.0,5.0,90,0.00,,,0.00,WUHU216DAVISVP2,2013-02-25 07:01:00,
2013-02-25 02:06:00,31.4,28.8,29.93,NNW,328,1.0,5.0,90,0.00,,,0.00,WUHU216DAVISVP2,2013-02-25 07:06:00,
2013-02-25 02:11:00,31.2,28.8,29.94,NW,319,2.0,4.0,91,0.00,,,0.00,WUHU216DAVISVP2,2013-02-25 07:11:00,
2013-02-25 02:16:00,31.0,28.6,29.93,NW,307,3.0,4.0,91,0.00,,,0.00,WUHU216DAVISVP2,2013-02-25 07:16:00,
2013-02-25 02:21:00,30.8,28.4,29.94,NW,321,2.0,4.0,91,0.00,,,0.00,WUHU216DAVISVP2,2013-02-25 07:21:00,
2013-02-25 02:26:00,30.7,28.6,29.94,WNW,283,1.0,3.0,92,0.00,,,0.00,WUHU216DAVISVP2,2013-02-25 07:26:00,
2013-02-25 02:31:00,30.6,28.5,29.94,WNW,302,1.0,3.0,92,0.00,,,0.00,WUHU216DAVISVP2,2013-02-25 07:31:00,
2013-02-25 02:36:00,30.5,28.4,29.94,WNW,293,1.0,2.0,92,0.00,,,0.00,WUHU216DAVISVP2,2013-02-25 07:36:00,
2013-02-25 02:41:00,30.6,28.5,29.94,West,276,0.0,2.0,92,0.00,,,0.00,WUHU216DAVISVP2,2013-02-25 07:41:00,
2013-02-25 02:46:00,30.6,28.5,29.94,West,278,0.0,2.0,92,0.00,,,0.00,WUHU216DAVISVP2,2013-02-25 07:46:00,
2013-02-25 02:51:00,30.6,28.2,29.94,WNW,285,1.0,2.0,91,0.00,,,0.00,WUHU216DAVISVP2,2013-02-25 07:51:00,
2013-02-25 02:56:00,30.5,28.1,29.95,WNW,288,2.0,2.0,91,0.00,,,0.00,WUHU216DAVISVP2,2013-02-25 07:56:00,
2013-02-25 03:01:00,30.5,27.9,29.95,West,280,1.0,2.0,90,0.00,,,0.00,WUHU216DAVISVP2,2013-02-25 08:01:00,
2013-02-25 03:06:00,30.5,27.9,29.95,WNW,291,1.0,2.0,90,0.00,,,0.00,WUHU216DAVISVP2,2013-02-25 08:06:00,
2013-02-25 03:11:00,30.4,28.0,29.95,WNW,300,1.0,2.0,91,0.00,,,0.00,WUHU216DAVISVP2,2013-02-25 08:11:00,
2013-02-25 03:16:00,30.3,27.7,29.95,WNW,288,1.0,3.0,90,0.00,,,0.00,WUHU216DAVISVP2,2013-02-25 08:16:00,
2013-02-25 03:21:00,30.3,27.7,29.95,West,274,2.0,4.0,90,0.00,,,0.00,WUHU216DAVISVP2,2013-02-25 08:21:00,
2013-02-25 03:26:00,30.2,27.6,29.96,WNW,294,2.0,4.0,90,0.00,,,0.00,WUHU216DAVISVP2,2013-02-25 08:26:00,
2013-02-25 03:31:00,30.2,27.6,29.96,WNW,284,2.0,3.0,90,0.00,,,0.00,WUHU216DAVISVP2,2013-02-25 08:31:00,
2013-02-25 03:36:00,30.2,27.3,29.96,WNW,296,1.0,3.0,89,0.00,,,0.00,WUHU216DAVISVP2,2013-02-25 08:36:00,
2013-02-25 03:41:00,30.0,27.1,29.96,NW,317,1.0,3.0,89,0.00,,,0.00,WUHU216DAVISVP2,2013-02-25 08:41:00,
2013-02-25 03:46:00,29.8,27.2,29.96,NW,313,2.0,3.0,90,0.00,,,0.00,WUHU216DAVISVP2,2013-02-25 08:46:00,
2013-02-25 03:51:00,29.8,27.2,29.96,WNW,291,1.0,3.0,90,0.00,,,0.00,WUHU216DAVISVP2,2013-02-25 08:51:00,
2013-02-25 03:56:00,29.8,27.2,29.97,WNW,288,1.0,2.0,90,0.00,,,0.00,WUHU216DAVISVP2,2013-02-25 08:56:00,
2013-02-25 04:01:00,29.7,27.1,29.96,NW,309,1.0,1.0,90,0.00,,,0.00,WUHU216DAVISVP2,2013-02-25 09:01:00,
2013-02-25 04:06:00,29.5,26.9,29.97,NW,309,0.0,2.0,90,0.00,,,0.00,WUHU216DAVISVP2,2013-02-25 09:06:00,
2013-02-25 04:11:00,29.4,26.8,29.97,NW,309,0.0,2.0,90,0.00,,,0.00,WUHU216DAVISVP2,2013-02-25 09:11:00,
2013-02-25 04:16:00,29.4,26.8,29.97,West,266,0.0,0.0,90,0.00,,,0.00,WUHU216DAVISVP2,2013-02-25 09:16:00,
2013-02-25 04:21:00,29.4,26.8,29.98,West,267,0.0,1.0,90,0.00,,,0.00,WUHU216DAVISVP2,2013-02-25 09:21:00,
2013-02-25 04:26:00,29.4,26.8,29.98,WNW,289,0.0,1.0,90,0.00,,,0.00,WUHU216DAVISVP2,2013-02-25 09:26:00,
2013-02-25 04:33:00,29.3,26.7,29.98,NW,315,0.0,2.0,90,0.00,,,0.00,WUHU216DAVISVP2,2013-02-25 09:33:00,
2013-02-25 04:38:00,29.3,26.7,29.98,WNW,287,0.0,2.0,90,0.00,,,0.00,WUHU216DAVISVP2,2013-02-25 09:38:00,
2013-02-25 04:43:00,29.3,26.7,29.98,WNW,287,0.0,1.0,90,0.00,,,0.00,WUHU216DAVISVP2,2013-02-25 09:43:00,
2013-02-25 04:48:00,29.2,26.6,29.99,WNW,287,0.0,1.0,90,0.00,,,0.00,WUHU216DAVISVP2,2013-02-25 09:48:00,
2013-02-25 04:53:00,29.1,26.5,29.99,WNW,287,0.0,1.0,90,0.00,,,0.00,WUHU216DAVISVP2,2013-02-25 09:53:00,
2013-02-25 04:58:00,28.7,26.4,29.99,WNW,287,0.0,1.0,91,0.00,,,0.00,WUHU216DAVISVP2,2013-02-25 09:58:00,
2013-02-25 05:03:00,28.2,25.9,30.00,WNW,287,0.0,1.0,91,0.00,,,0.00,WUHU216DAVISVP2,2013-02-25 10:03:00,
2013-02-25 05:08:00,27.4,25.3,30.00,WNW,287,0.0,0.0,92,0.00,,,0.00,WUHU216DAVISVP2,2013-02-25 10:08:00,
2013-02-25 05:13:00,27.1,25.3,30.00,WNW,287,0.0,0.0,93,0.00,,,0.00,WUHU216DAVISVP2,2013-02-25 10:13:00,
2013-02-25 05:18:00,26.9,25.1,30.00,WNW,287,0.0,0.0,93,0.00,,,0.00,WUHU216DAVISVP2,2013-02-25 10:18:00,
2013-02-25 05:23:00,26.5,24.7,30.00,WNW,287,0.0,0.0,93,0.00,,,0.00,WUHU216DAVISVP2,2013-02-25 10:23:00,
2013-02-25 05:28:00,26.6,25.3,30.01,WNW,287,0.0,0.0,95,0.00,,,0.00,WUHU216DAVISVP2,2013-02-25 10:28:00,
2013-02-25 05:33:00,27.3,26.0,30.01,WNW,287,0.0,0.0,95,0.00,,,0.00,WUHU216DAVISVP2,2013-02-25 10:33:00,
2013-02-25 05:38:00,27.6,26.1,30.01,WNW,287,0.0,0.0,94,0.00,,,0.00,WUHU216DAVISVP2,2013-02-25 10:38:00,
2013-02-25 05:43:00,27.8,26.0,30.01,WNW,287,0.0,0.0,93,0.00,,,0.00,WUHU216DAVISVP2,2013-02-25 10:43:00,
2013-02-25 05:48:00,27.7,25.6,30.01,WNW,287,0.0,0.0,92,0.00,,,0.00,WUHU216DAVISVP2,2013-02-25 10:48:00,
2013-02-25 05:53:00,27.3,25.2,30.01,WNW,287,0.0,0.0,92,0.00,,,0.00,WUHU216DAVISVP2,2013-02-25 10:53:00,
2013-02-25 05:58:00,27.0,25.2,30.02,WNW,287,0.0,0.0,93,0.00,,,0.00,WUHU216DAVISVP2,2013-02-25 10:58:00,
2013-02-25 06:03:00,26.6,24.8,30.02,WNW,287,0.0,0.0,93,0.00,,,0.00,WUHU216DAVISVP2,2013-02-25 11:03:00,
2013-02-25 06:08:00,26.3,24.8,30.02,WNW,287,0.0,0.0,94,0.00,,,0.00,WUHU216DAVISVP2,2013-02-25 11:08:00,
2013-02-25 06:13:00,26.3,25.0,30.02,WNW,287,0.0,0.0,95,0.00,,,0.00,WUHU216DAVISVP2,2013-02-25 11:13:00,
2013-02-25 06:18:00,26.2,24.9,30.03,WNW,287,0.0,0.0,95,0.00,,,0.00,WUHU216DAVISVP2,2013-02-25 11:18:00,
2013-02-25 06:23:00,26.1,24.8,30.03,WNW,287,0.0,0.0,95,0.00,,,0.00,WUHU216DAVISVP2,2013-02-25 11:23:00,
2013-02-25 06:28:00,26.1,25.1,30.03,WNW,287,0.0,0.0,96,0.00,,,0.00,WUHU216DAVISVP2,2013-02-25 11:28:00,
2013-02-25 06:33:00,26.2,25.2,30.03,WNW,287,0.0,0.0,96,0.00,,,0.00,WUHU216DAVISVP2,2013-02-25 11:33:00,
2013-02-25 06:38:00,26.4,25.4,30.03,WNW,287,0.0,1.0,96,0.00,,,0.00,WUHU216DAVISVP2,2013-02-25 11:38:00,
2013-02-25 06:43:00,26.7,25.7,30.04,WNW,287,0.0,1.0,96,0.00,,,0.00,WUHU216DAVISVP2,2013-02-25 11:43:00,
2013-02-25 06:48:00,26.9,25.9,30.04,WNW,286,0.0,0.0,96,0.00,,,0.00,WUHU216DAVISVP2,2013-02-25 11:48:00,
2013-02-25 06:53:00,26.7,25.2,30.04,WNW,287,0.0,0.0,94,0.00,,,0.00,WUHU216DAVISVP2,2013-02-25 11:53:00,
2013-02-25 06:58:00,26.1,24.6,30.04,WNW,287,0.0,0.0,94,0.00,,,0.00,WUHU216DAVISVP2,2013-02-25 11:58:00,
2013-02-25 07:03:00,25.8,24.5,30.04,WNW,287,0.0,1.0,95,0.00,,,0.00,WUHU216DAVISVP2,2013-02-25 12:03:00,
2013-02-25 07:08:00,25.8,24.5,30.05,WNW,287,0.0,1.0,95,0.00,,,0.00,WUHU216DAVISVP2,2013-02-25 12:08:00,
2013-02-25 07:13:00,25.9,24.9,30.05,WNW,287,0.0,0.0,96,0.00,,,0.00,WUHU216DAVISVP2,2013-02-25 12:13:00,
2013-02-25 07:18:00,26.1,25.1,30.05,WNW,286,0.0,0.0,96,0.00,,,0.00,WUHU216DAVISVP2,2013-02-25 12:18:00,
2013-02-25 07:23:00,26.3,25.3,30.05,WNW,287,0.0,0.0,96,0.00,,,0.00,WUHU216DAVISVP2,2013-02-25 12:23:00,
2013-02-25 07:28:00,26.7,25.7,30.05,WNW,287,0.0,0.0,96,0.00,,,0.00,WUHU216DAVISVP2,2013-02-25 12:28:00,
2013-02-25 07:34:00,27.2,26.2,30.05,WNW,287,0.0,0.0,96,0.00,,,0.00,WUHU216DAVISVP2,2013-02-25 12:34:00,
2013-02-25 07:39:00,27.7,26.7,30.05,WNW,287,0.0,0.0,96,0.00,,,0.00,WUHU216DAVISVP2,2013-02-25 12:39:00,
2013-02-25 07:45:00,28.0,26.7,30.05,WNW,287,0.0,0.0,95,0.00,,,0.00,WUHU216DAVISVP2,2013-02-25 12:45:00,
2013-02-25 07:50:00,28.1,26.8,30.05,WNW,287,0.0,1.0,95,0.00,,,0.00,WUHU216DAVISVP2,2013-02-25 12:50:00,
2013-02-25 07:55:00,28.5,27.2,30.05,WNW,287,0.0,1.0,95,0.00,,,0.00,WUHU216DAVISVP2,2013-02-25 12:55:00,
2013-02-25 08:00:00,28.6,26.8,30.05,WNW,287,0.0,0.0,93,0.00,,,0.00,WUHU216DAVISVP2,2013-02-25 13:00:00,
2013-02-25 08:05:00,28.8,27.0,30.06,WNW,287,0.0,1.0,93,0.00,,,0.00,WUHU216DAVISVP2,2013-02-25 13:05:00,
2013-02-25 08:10:00,29.3,27.5,30.06,WNW,286,0.0,1.0,93,0.00,,,0.00,WUHU216DAVISVP2,2013-02-25 13:10:00,
2013-02-25 08:15:00,30.2,27.8,30.06,West,266,0.0,1.0,91,0.00,,,0.00,WUHU216DAVISVP2,2013-02-25 13:15:00,
2013-02-25 08:20:00,30.1,27.5,30.06,SSE,155,0.0,1.0,90,0.00,,,0.00,WUHU216DAVISVP2,2013-02-25 13:20:00,
2013-02-25 08:25:00,30.3,27.7,30.07,SSE,153,1.0,1.0,90,0.00,,,0.00,WUHU216DAVISVP2,2013-02-25 13:25:00,
2013-02-25 08:30:00,30.7,27.8,30.07,SSE,154,0.0,1.0,89,0.00,,,0.00,WUHU216DAVISVP2,2013-02-25 13:30:00,
2013-02-25 08:35:00,31.4,28.2,30.08,SSE,153,0.0,1.0,88,0.00,,,0.00,WUHU216DAVISVP2,2013-02-25 13:35:00,
2013-02-25 08:40:00,32.2,29.3,30.08,SSE,153,0.0,0.0,89,0.00,,,0.00,WUHU216DAVISVP2,2013-02-25 13:40:00,
2013-02-25 08:45:00,32.6,29.4,30.08,SSE,155,0.0,0.0,88,0.00,,,0.00,WUHU216DAVISVP2,2013-02-25 13:45:00,
2013-02-25 08:50:00,32.6,29.4,30.08,SW,235,0.0,1.0,88,0.00,,,0.00,WUHU216DAVISVP2,2013-02-25 13:50:00,
2013-02-25 08:55:00,33.1,29.6,30.08,SW,233,0.0,1.0,87,0.00,,,0.00,WUHU216DAVISVP2,2013-02-25 13:55:00,
2013-02-25 09:00:00,33.3,29.5,30.08,NW,318,2.0,2.0,86,0.00,,,0.00,WUHU216DAVISVP2,2013-02-25 14:00:00,
2013-02-25 09:05:00,33.2,29.2,30.08,NNW,339,1.0,2.0,85,0.00,,,0.00,WUHU216DAVISVP2,2013-02-25 14:05:00,
2013-02-25 09:10:00,33.1,29.1,30.08,NW,325,2.0,2.0,85,0.00,,,0.00,WUHU216DAVISVP2,2013-02-25 14:10:00,
2013-02-25 09:16:00,33.1,29.1,30.08,NW,304,0.0,2.0,85,0.00,,,0.00,WUHU216DAVISVP2,2013-02-25 14:16:00,
2013-02-25 09:21:00,33.1,28.5,30.08,NNW,347,2.0,5.0,83,0.00,,,0.00,WUHU216DAVISVP2,2013-02-25 14:21:00,
2013-02-25 09:26:00,33.1,28.8,30.08,NW,319,4.0,5.0,84,0.00,,,0.00,WUHU216DAVISVP2,2013-02-25 14:26:00,
2013-02-25 09:31:00,33.1,29.1,30.08,NNW,345,2.0,5.0,85,0.00,,,0.00,WUHU216DAVISVP2,2013-02-25 14:31:00,
2013-02-25 09:35:00,33.3,29.3,30.08,North,352,2.0,4.0,85,0.00,,,0.00,WUHU216DAVISVP2,2013-02-25 14:35:00,
2013-02-25 09:41:00,33.5,29.7,30.08,NNE,25,2.0,4.0,86,0.00,,,0.00,WUHU216DAVISVP2,2013-02-25 14:41:00,
2013-02-25 09:45:00,33.7,29.9,30.08,NNE,27,1.0,3.0,86,0.00,,,0.00,WUHU216DAVISVP2,2013-02-25 14:45:00,
2013-02-25 09:50:00,33.9,30.1,30.08,NNE,25,2.0,3.0,86,0.00,,,0.00,WUHU216DAVISVP2,2013-02-25 14:50:00,
2013-02-25 09:55:00,34.0,30.2,30.08,North,354,2.0,4.0,86,0.00,,,0.00,WUHU216DAVISVP2,2013-02-25 14:55:00,
2013-02-25 10:01:00,34.1,30.0,30.08,NW,321,3.0,5.0,85,0.00,,,0.00,WUHU216DAVISVP2,2013-02-25 15:01:00,
2013-02-25 10:06:00,34.3,30.0,30.08,NW,315,5.0,6.0,84,0.00,,,0.00,WUHU216DAVISVP2,2013-02-25 15:06:00,
2013-02-25 10:11:00,34.4,29.8,30.08,NW,309,5.0,7.0,83,0.01,,,0.01,WUHU216DAVISVP2,2013-02-25 15:11:00,
2013-02-25 10:16:00,34.4,29.8,30.09,NNE,23,4.0,7.0,83,0.01,,,0.01,WUHU216DAVISVP2,2013-02-25 15:16:00,
2013-02-25 10:21:00,34.6,30.0,30.08,North,1,3.0,7.0,83,0.01,,,0.01,WUHU216DAVISVP2,2013-02-25 15:21:00,
2013-02-25 10:26:00,34.8,30.4,30.08,NNE,16,5.0,7.0,84,0.01,,,0.01,WUHU216DAVISVP2,2013-02-25 15:26:00,
2013-02-25 10:31:00,34.9,30.5,30.09,North,354,4.0,7.0,84,0.01,,,0.01,WUHU216DAVISVP2,2013-02-25 15:31:00,
2013-02-25 10:38:00,35.3,30.6,30.09,North,9,3.0,7.0,83,0.01,,,0.01,WUHU216DAVISVP2,2013-02-25 15:38:00,
2013-02-25 10:43:00,35.5,30.8,30.09,NNE,22,5.0,9.0,83,0.02,,,0.02,WUHU216DAVISVP2,2013-02-25 15:43:00,
2013-02-25 10:48:00,35.7,30.7,30.09,NW,326,3.0,9.0,82,0.02,,,0.02,WUHU216DAVISVP2,2013-02-25 15:48:00,
2013-02-25 10:53:00,36.0,31.3,30.09,NNW,329,2.0,9.0,83,0.02,,,0.02,WUHU216DAVISVP2,2013-02-25 15:53:00,
2013-02-25 10:58:00,36.3,31.3,30.09,NNW,347,6.0,8.0,82,0.02,,,0.02,WUHU216DAVISVP2,2013-02-25 15:58:00,
2013-02-25 11:03:00,36.4,31.1,30.09,NNW,341,4.0,8.0,81,0.02,,,0.02,WUHU216DAVISVP2,2013-02-25 16:03:00,
2013-02-25 11:08:00,36.5,31.5,30.09,North,350,5.0,8.0,82,0.02,,,0.03,WUHU216DAVISVP2,2013-02-25 16:08:00,
2013-02-25 11:13:00,36.6,31.3,30.09,NNW,347,7.0,8.0,81,0.02,,,0.03,WUHU216DAVISVP2,2013-02-25 16:13:00,
2013-02-25 11:18:00,36.7,31.1,30.09,NNE,19,7.0,10.0,80,0.02,,,0.03,WUHU216DAVISVP2,2013-02-25 16:18:00,
2013-02-25 11:23:00,36.8,31.2,30.09,North,353,6.0,10.0,80,0.02,,,0.03,WUHU216DAVISVP2,2013-02-25 16:23:00,
2013-02-25 11:28:00,37.1,31.5,30.09,NNW,327,8.0,8.0,80,0.03,,,0.04,WUHU216DAVISVP2,2013-02-25 16:28:00,
2013-02-25 11:33:00,37.1,31.2,30.09,NNE,23,8.0,10.0,79,0.03,,,0.04,WUHU216DAVISVP2,2013-02-25 16:33:00,
2013-02-25 11:38:00,37.0,30.8,30.09,North,9,5.0,10.0,78,0.03,,,0.04,WUHU216DAVISVP2,2013-02-25 16:38:00,
2013-02-25 11:43:00,37.3,31.1,30.09,NNE,25,4.0,10.0,78,0.02,,,0.04,WUHU216DAVISVP2,2013-02-25 16:43:00,
2013-02-25 11:48:00,36.8,30.6,30.10,NNE,25,4.0,8.0,78,0.03,,,0.05,WUHU216DAVISVP2,2013-02-25 16:48:00,
2013-02-25 11:53:00,36.9,31.3,30.10,North,353,3.0,8.0,80,0.03,,,0.05,WUHU216DAVISVP2,2013-02-25 16:53:00,
2013-02-25 11:58:00,37.3,31.7,30.10,NNE,14,3.0,7.0,80,0.03,,,0.05,WUHU216DAVISVP2,2013-02-25 16:58:00,
2013-02-25 12:03:00,37.8,31.9,30.10,NNE,19,9.0,9.0,79,0.03,,,0.05,WUHU216DAVISVP2,2013-02-25 17:03:00,
2013-02-25 12:08:00,37.7,31.5,30.10,NNW,328,6.0,9.0,78,0.03,,,0.06,WUHU216DAVISVP2,2013-02-25 17:08:00,
2013-02-25 12:13:00,37.4,31.2,30.11,NNW,333,8.0,10.0,78,0.03,,,0.06,WUHU216DAVISVP2,2013-02-25 17:13:00,
2013-02-25 12:18:00,37.2,31.0,30.11,NW,326,4.0,10.0,78,0.03,,,0.06,WUHU216DAVISVP2,2013-02-25 17:18:00,
2013-02-25 12:23:00,37.1,31.2,30.11,NW,307,2.0,8.0,79,0.03,,,0.06,WUHU216DAVISVP2,2013-02-25 17:23:00,
2013-02-25 12:28:00,37.3,30.8,30.11,NNE,16,2.0,7.0,77,0.02,,,0.06,WUHU216DAVISVP2,2013-02-25 17:28:00,
2013-02-25 12:33:00,37.6,30.8,30.11,North,6,2.0,4.0,76,0.02,,,0.06,WUHU216DAVISVP2,2013-02-25 17:33:00,
2013-02-25 12:38:00,38.0,31.5,30.11,NE,51,1.0,4.0,77,0.02,,,0.06,WUHU216DAVISVP2,2013-02-25 17:38:00,
2013-02-25 12:43:00,38.4,31.2,30.11,NNE,13,2.0,5.0,75,0.02,,,0.06,WUHU216DAVISVP2,2013-02-25 17:43:00,
2013-02-25 12:48:00,38.5,32.0,30.11,NNW,329,5.0,6.0,77,0.01,,,0.06,WUHU216DAVISVP2,2013-02-25 17:48:00,
2013-02-25 12:53:00,38.2,31.7,30.12,NNE,21,3.0,6.0,77,0.01,,,0.06,WUHU216DAVISVP2,2013-02-25 17:53:00,
2013-02-25 12:58:00,38.4,31.9,30.12,North,355,3.0,5.0,77,0.01,,,0.06,WUHU216DAVISVP2,2013-02-25 17:58:00,
2013-02-25 13:03:00,38.6,31.7,30.12,North,353,2.0,5.0,76,0.01,,,0.06,WUHU216DAVISVP2,2013-02-25 18:03:00,
2013-02-25 13:08:00,38.5,31.3,30.11,NNW,335,6.0,7.0,75,0.00,,,0.06,WUHU216DAVISVP2,2013-02-25 18:08:00,
2013-02-25 13:13:00,38.6,31.4,30.11,NNE,23,4.0,7.0,75,0.00,,,0.06,WUHU216DAVISVP2,2013-02-25 18:13:00,
2013-02-25 13:18:00,38.7,31.2,30.11,NNE,26,2.0,6.0,74,0.00,,,0.06,WUHU216DAVISVP2,2013-02-25 18:18:00,
2013-02-25 13:23:00,38.9,31.4,30.11,North,6,3.0,7.0,74,0.00,,,0.06,WUHU216DAVISVP2,2013-02-25 18:23:00,
2013-02-25 13:28:00,39.0,31.1,30.11,NNE,20,7.0,7.0,73,0.00,,,0.06,WUHU216DAVISVP2,2013-02-25 18:28:00,
2013-02-25 13:33:00,39.0,31.1,30.12,North,4,2.0,7.0,73,0.00,,,0.06,WUHU216DAVISVP2,2013-02-25 18:33:00,
2013-02-25 13:41:00,38.9,31.0,30.12,NNE,22,6.0,6.0,73,0.00,,,0.06,WUHU216DAVISVP2,2013-02-25 18:41:00,
2013-02-25 13:46:00,39.0,30.8,30.12,NNW,337,5.0,8.0,72,0.00,,,0.06,WUHU216DAVISVP2,2013-02-25 18:46:00,
2013-02-25 13:51:00,39.0,31.1,30.12,NW,307,2.0,8.0,73,0.00,,,0.06,WUHU216DAVISVP2,2013-02-25 18:51:00,
2013-02-25 13:56:00,39.1,30.9,30.12,NNW,339,3.0,7.0,72,0.00,,,0.06,WUHU216DAVISVP2,2013-02-25 18:56:00,
2013-02-25 14:01:00,39.2,31.3,30.12,North,5,5.0,6.0,73,0.00,,,0.06,WUHU216DAVISVP2,2013-02-25 19:01:00,
2013-02-25 14:06:00,39.1,31.2,30.11,NNE,30,4.0,8.0,73,0.00,,,0.06,WUHU216DAVISVP2,2013-02-25 19:06:00,
2013-02-25 14:11:00,39.2,31.0,30.11,NNE,12,5.0,8.0,72,0.00,,,0.06,WUHU216DAVISVP2,2013-02-25 19:11:00,
2013-02-25 14:16:00,39.2,31.3,30.11,NNE,23,5.0,7.0,73,0.00,,,0.06,WUHU216DAVISVP2,2013-02-25 19:16:00,
2013-02-25 14:21:00,39.2,31.3,30.12,NNE,21,3.0,7.0,73,0.00,,,0.06,WUHU216DAVISVP2,2013-02-25 19:21:00,
2013-02-25 14:26:00,39.2,31.3,30.12,NNE,26,5.0,7.0,73,0.00,,,0.06,WUHU216DAVISVP2,2013-02-25 19:26:00,
2013-02-25 14:31:00,39.1,31.2,30.12,NNE,22,4.0,8.0,73,0.00,,,0.06,WUHU216DAVISVP2,2013-02-25 19:31:00,
2013-02-25 14:36:00,38.9,31.0,30.12,NNW,333,3.0,8.0,73,0.00,,,0.06,WUHU216DAVISVP2,2013-02-25 19:36:00,
2013-02-25 14:41:00,38.8,30.6,30.12,NNW,345,4.0,6.0,72,0.00,,,0.06,WUHU216DAVISVP2,2013-02-25 19:41:00,
2013-02-25 14:46:00,38.9,31.0,30.12,NNE,23,4.0,6.0,73,0.00,,,0.06,WUHU216DAVISVP2,2013-02-25 19:46:00,
2013-02-25 14:51:00,39.2,31.0,30.12,NNE,30,4.0,6.0,72,0.00,,,0.06,WUHU216DAVISVP2,2013-02-25 19:51:00,
2013-02-25 14:56:00,39.3,31.1,30.13,NNW,327,0.0,6.0,72,0.00,,,0.06,WUHU216DAVISVP2,2013-02-25 19:56:00,
2013-02-25 15:01:00,39.4,31.2,30.13,WNW,293,2.0,4.0,72,0.00,,,0.06,WUHU216DAVISVP2,2013-02-25 20:01:00,
2013-02-25 15:06:00,39.2,31.0,30.13,NW,316,7.0,8.0,72,0.00,,,0.06,WUHU216DAVISVP2,2013-02-25 20:06:00,
2013-02-25 15:11:00,39.1,30.6,30.13,NNE,26,3.0,8.0,71,0.00,,,0.06,WUHU216DAVISVP2,2013-02-25 20:11:00,
2013-02-25 15:16:00,39.2,31.0,30.13,NNW,347,3.0,7.0,72,0.00,,,0.06,WUHU216DAVISVP2,2013-02-25 20:16:00,
2013-02-25 15:21:00,39.1,30.6,30.13,NNW,337,4.0,7.0,71,0.00,,,0.06,WUHU216DAVISVP2,2013-02-25 20:21:00,
2013-02-25 15:26:00,39.1,30.6,30.13,North,353,2.0,6.0,71,0.00,,,0.06,WUHU216DAVISVP2,2013-02-25 20:26:00,
2013-02-25 15:31:00,39.2,31.0,30.13,NNE,12,2.0,5.0,72,0.00,,,0.06,WUHU216DAVISVP2,2013-02-25 20:31:00,
2013-02-25 15:36:00,39.3,31.1,30.13,North,349,4.0,8.0,72,0.00,,,0.06,WUHU216DAVISVP2,2013-02-25 20:36:00,
2013-02-25 15:41:00,39.2,31.0,30.13,NW,323,5.0,8.0,72,0.00,,,0.06,WUHU216DAVISVP2,2013-02-25 20:41:00,
2013-02-25 15:46:00,39.2,31.0,30.13,NNE,26,3.0,10.0,72,0.00,,,0.06,WUHU216DAVISVP2,2013-02-25 20:46:00,
2013-02-25 15:51:00,39.2,31.0,30.14,North,357,4.0,10.0,72,0.00,,,0.06,WUHU216DAVISVP2,2013-02-25 20:51:00,
2013-02-25 15:56:00,39.2,31.3,30.14,NNE,23,5.0,9.0,73,0.00,,,0.06,WUHU216DAVISVP2,2013-02-25 20:56:00,
2013-02-25 16:01:00,39.0,30.8,30.14,North,4,3.0,6.0,72,0.00,,,0.06,WUHU216DAVISVP2,2013-02-25 21:01:00,
2013-02-25 16:06:00,39.0,31.1,30.14,North,353,3.0,5.0,73,0.00,,,0.06,WUHU216DAVISVP2,2013-02-25 21:06:00,
2013-02-25 16:11:00,39.0,31.5,30.14,NW,326,1.0,5.0,74,0.00,,,0.06,WUHU216DAVISVP2,2013-02-25 21:11:00,
2013-02-25 16:16:00,38.8,30.9,30.15,NNW,332,4.0,5.0,73,0.00,,,0.06,WUHU216DAVISVP2,2013-02-25 21:16:00,
2013-02-25 16:21:00,38.7,31.2,30.15,North,9,3.0,5.0,74,0.00,,,0.06,WUHU216DAVISVP2,2013-02-25 21:21:00,
2013-02-25 16:26:00,38.7,31.2,30.15,NNE,12,2.0,4.0,74,0.00,,,0.06,WUHU216DAVISVP2,2013-02-25 21:26:00,
2013-02-25 16:31:00,38.5,31.3,30.15,North,1,3.0,4.0,75,0.00,,,0.06,WUHU216DAVISVP2,2013-02-25 21:31:00,
2013-02-25 16:36:00,38.4,31.2,30.14,NNE,15,4.0,7.0,75,0.00,,,0.06,WUHU216DAVISVP2,2013-02-25 21:36:00,
2013-02-25 16:43:00,38.2,31.0,30.15,NNW,347,3.0,7.0,75,0.00,,,0.06,WUHU216DAVISVP2,2013-02-25 21:43:00,
2013-02-25 16:48:00,38.2,31.0,30.15,North,355,2.0,4.0,75,0.00,,,0.06,WUHU216DAVISVP2,2013-02-25 21:48:00,
2013-02-25 16:53:00,38.1,31.2,30.15,North,5,3.0,4.0,76,0.00,,,0.06,WUHU216DAVISVP2,2013-02-25 21:53:00,
2013-02-25 16:58:00,38.0,30.8,30.15,NNE,25,4.0,6.0,75,0.00,,,0.06,WUHU216DAVISVP2,2013-02-25 21:58:00,
2013-02-25 17:03:00,38.0,31.2,30.16,NNW,345,2.0,6.0,76,0.00,,,0.06,WUHU216DAVISVP2,2013-02-25 22:03:00,
2013-02-25 17:08:00,37.9,31.1,30.16,NNE,15,4.0,4.0,76,0.00,,,0.06,WUHU216DAVISVP2,2013-02-25 22:08:00,
2013-02-25 17:13:00,37.8,31.0,30.16,NNW,347,2.0,4.0,76,0.00,,,0.06,WUHU216DAVISVP2,2013-02-25 22:13:00,
2013-02-25 17:18:00,37.8,31.0,30.16,North,5,2.0,4.0,76,0.00,,,0.06,WUHU216DAVISVP2,2013-02-25 22:18:00,
2013-02-25 17:23:00,37.7,30.9,30.16,North,6,2.0,4.0,76,0.00,,,0.06,WUHU216DAVISVP2,2013-02-25 22:23:00,
2013-02-25 17:28:00,37.7,31.2,30.16,North,4,1.0,3.0,77,0.00,,,0.06,WUHU216DAVISVP2,2013-02-25 22:28:00,
2013-02-25 17:33:00,37.6,31.1,30.15,North,359,1.0,3.0,77,0.00,,,0.06,WUHU216DAVISVP2,2013-02-25 22:33:00,
2013-02-25 17:38:00,37.6,31.1,30.16,NNW,347,1.0,3.0,77,0.00,,,0.06,WUHU216DAVISVP2,2013-02-25 22:38:00,
2013-02-25 17:43:00,37.4,30.9,30.16,NNW,333,0.0,2.0,77,0.00,,,0.06,WUHU216DAVISVP2,2013-02-25 22:43:00,
2013-02-25 17:48:00,37.4,30.9,30.16,NW,326,1.0,1.0,77,0.00,,,0.06,WUHU216DAVISVP2,2013-02-25 22:48:00,
2013-02-25 17:53:00,37.4,30.9,30.16,NNW,328,1.0,2.0,77,0.00,,,0.06,WUHU216DAVISVP2,2013-02-25 22:53:00,
2013-02-25 17:58:00,37.4,30.9,30.16,North,349,1.0,2.0,77,0.00,,,0.06,WUHU216DAVISVP2,2013-02-25 22:58:00,
2013-02-25 18:03:00,37.4,30.9,30.16,North,9,1.0,2.0,77,0.00,,,0.06,WUHU216DAVISVP2,2013-02-25 23:03:00,
2013-02-25 18:08:00,37.3,30.8,30.16,North,354,1.0,2.0,77,0.00,,,0.06,WUHU216DAVISVP2,2013-02-25 23:08:00,
2013-02-25 18:13:00,37.2,30.7,30.17,North,354,1.0,2.0,77,0.00,,,0.06,WUHU216DAVISVP2,2013-02-25 23:13:00,
2013-02-25 18:18:00,37.1,30.6,30.17,North,4,2.0,2.0,77,0.00,,,0.06,WUHU216DAVISVP2,2013-02-25 23:18:00,
2013-02-25 18:23:00,37.1,30.6,30.17,North,351,2.0,2.0,77,0.00,,,0.06,WUHU216DAVISVP2,2013-02-25 23:23:00,
2013-02-25 18:28:00,37.0,30.5,30.18,NW,325,1.0,3.0,77,0.00,,,0.06,WUHU216DAVISVP2,2013-02-25 23:28:00,
2013-02-25 18:33:00,36.9,30.4,30.18,NW,315,2.0,3.0,77,0.00,,,0.06,WUHU216DAVISVP2,2013-02-25 23:33:00,
2013-02-25 18:38:00,36.9,30.4,30.18,NNW,334,2.0,3.0,77,0.00,,,0.06,WUHU216DAVISVP2,2013-02-25 23:38:00,
2013-02-25 18:43:00,36.9,30.4,30.19,NNW,328,2.0,2.0,77,0.00,,,0.06,WUHU216DAVISVP2,2013-02-25 23:43:00,
2013-02-25 18:48:00,36.9,30.4,30.19,NNW,327,0.0,2.0,77,0.00,,,0.06,WUHU216DAVISVP2,2013-02-25 23:48:00,
2013-02-25 18:53:00,37.0,30.5,30.20,NW,321,0.0,2.0,77,0.00,,,0.06,WUHU216DAVISVP2,2013-02-25 23:53:00,
2013-02-25 18:58:00,36.9,30.4,30.20,NW,321,0.0,1.0,77,0.00,,,0.06,WUHU216DAVISVP2,2013-02-25 23:58:00,
2013-02-25 19:03:00,36.9,30.4,30.20,NW,321,0.0,1.0,77,0.00,,,0.06,WUHU216DAVISVP2,2013-02-26 00:03:00,
2013-02-25 19:08:00,36.9,30.4,30.20,NW,321,0.0,0.0,77,0.00,,,0.06,WUHU216DAVISVP2,2013-02-26 00:08:00,
2013-02-25 19:13:00,36.8,30.3,30.20,NW,321,0.0,0.0,77,0.00,,,0.06,WUHU216DAVISVP2,2013-02-26 00:13:00,
2013-02-25 19:18:00,36.6,30.7,30.21,NW,321,0.0,0.0,79,0.00,,,0.06,WUHU216DAVISVP2,2013-02-26 00:18:00,
2013-02-25 19:23:00,36.3,30.7,30.21,NW,321,0.0,0.0,80,0.00,,,0.06,WUHU216DAVISVP2,2013-02-26 00:23:00,
2013-02-25 19:28:00,36.3,30.4,30.21,NW,321,0.0,1.0,79,0.00,,,0.06,WUHU216DAVISVP2,2013-02-26 00:28:00,
2013-02-25 19:33:00,36.3,30.4,30.21,NW,321,0.0,1.0,79,0.00,,,0.06,WUHU216DAVISVP2,2013-02-26 00:33:00,
2013-02-25 19:38:00,36.3,30.4,30.21,NW,321,0.0,0.0,79,0.00,,,0.06,WUHU216DAVISVP2,2013-02-26 00:38:00,
2013-02-25 19:46:00,36.1,30.2,30.21,NW,321,0.0,0.0,79,0.00,,,0.06,WUHU216DAVISVP2,2013-02-26 00:46:00,
2013-02-25 19:51:00,36.0,30.4,30.20,NW,321,0.0,0.0,80,0.00,,,0.06,WUHU216DAVISVP2,2013-02-26 00:51:00,
2013-02-25 19:56:00,35.9,30.3,30.21,NW,321,0.0,0.0,80,0.00,,,0.06,WUHU216DAVISVP2,2013-02-26 00:56:00,
2013-02-25 20:01:00,36.0,30.4,30.21,NW,321,0.0,0.0,80,0.00,,,0.06,WUHU216DAVISVP2,2013-02-26 01:01:00,
2013-02-25 20:06:00,36.0,30.4,30.20,NW,321,0.0,0.0,80,0.00,,,0.06,WUHU216DAVISVP2,2013-02-26 01:06:00,
2013-02-25 20:11:00,35.9,30.3,30.20,NW,321,0.0,0.0,80,0.00,,,0.06,WUHU216DAVISVP2,2013-02-26 01:11:00,
2013-02-25 20:16:00,35.8,30.2,30.21,NW,321,0.0,0.0,80,0.00,,,0.06,WUHU216DAVISVP2,2013-02-26 01:16:00,
2013-02-25 20:21:00,35.8,30.2,30.20,NW,321,0.0,0.0,80,0.00,,,0.06,WUHU216DAVISVP2,2013-02-26 01:21:00,
2013-02-25 20:26:00,35.7,30.4,30.20,NW,321,0.0,0.0,81,0.00,,,0.06,WUHU216DAVISVP2,2013-02-26 01:26:00,
2013-02-25 20:31:00,35.6,30.6,30.21,NW,321,0.0,0.0,82,0.00,,,0.06,WUHU216DAVISVP2,2013-02-26 01:31:00,
2013-02-25 20:37:00,35.5,30.5,30.21,NNW,340,0.0,0.0,82,0.00,,,0.06,WUHU216DAVISVP2,2013-02-26 01:37:00,
2013-02-25 20:42:00,35.5,30.5,30.21,ESE,109,0.0,1.0,82,0.00,,,0.06,WUHU216DAVISVP2,2013-02-26 01:42:00,
2013-02-25 20:47:00,35.5,30.5,30.21,ESE,108,0.0,1.0,82,0.00,,,0.06,WUHU216DAVISVP2,2013-02-26 01:47:00,
2013-02-25 20:52:00,35.4,30.4,30.21,ESE,109,0.0,0.0,82,0.00,,,0.06,WUHU216DAVISVP2,2013-02-26 01:52:00,
2013-02-25 20:57:00,35.2,30.3,30.21,ESE,108,0.0,0.0,82,0.00,,,0.06,WUHU216DAVISVP2,2013-02-26 01:57:00,
2013-02-25 21:02:00,35.1,30.2,30.20,ESE,109,0.0,0.0,82,0.00,,,0.06,WUHU216DAVISVP2,2013-02-26 02:02:00,
2013-02-25 21:07:00,35.0,30.1,30.21,ESE,109,0.0,0.0,82,0.00,,,0.06,WUHU216DAVISVP2,2013-02-26 02:07:00,
2013-02-25 21:12:00,34.8,30.2,30.20,ESE,109,0.0,0.0,83,0.00,,,0.06,WUHU216DAVISVP2,2013-02-26 02:12:00,
2013-02-25 21:17:00,34.9,30.3,30.20,ESE,109,0.0,0.0,83,0.00,,,0.06,WUHU216DAVISVP2,2013-02-26 02:17:00,
2013-02-25 21:22:00,34.9,30.3,30.20,ESE,108,0.0,0.0,83,0.00,,,0.06,WUHU216DAVISVP2,2013-02-26 02:22:00,
2013-02-25 21:27:00,34.9,30.3,30.21,ESE,109,0.0,0.0,83,0.00,,,0.06,WUHU216DAVISVP2,2013-02-26 02:27:00,
2013-02-25 21:32:00,35.1,30.2,30.20,ESE,109,0.0,0.0,82,0.00,,,0.06,WUHU216DAVISVP2,2013-02-26 02:32:00,
2013-02-25 21:37:00,35.1,30.2,30.20,ESE,108,0.0,0.0,82,0.00,,,0.06,WUHU216DAVISVP2,2013-02-26 02:37:00,
2013-02-25 21:42:00,35.1,30.2,30.21,ESE,109,0.0,0.0,82,0.00,,,0.06,WUHU216DAVISVP2,2013-02-26 02:42:00,
2013-02-25 21:47:00,35.1,29.9,30.21,ESE,109,0.0,0.0,81,0.00,,,0.06,WUHU216DAVISVP2,2013-02-26 02:47:00,
2013-02-25 21:52:00,35.2,30.0,30.21,ESE,108,0.0,0.0,81,0.00,,,0.06,WUHU216DAVISVP2,2013-02-26 02:52:00,
2013-02-25 21:57:00,35.3,30.1,30.21,ESE,109,0.0,0.0,81,0.00,,,0.06,WUHU216DAVISVP2,2013-02-26 02:57:00,
2013-02-25 22:02:00,35.3,30.1,30.21,ESE,109,0.0,0.0,81,0.00,,,0.06,WUHU216DAVISVP2,2013-02-26 03:02:00,
2013-02-25 22:07:00,35.2,30.3,30.21,ESE,109,0.0,1.0,82,0.00,,,0.06,WUHU216DAVISVP2,2013-02-26 03:07:00,
2013-02-25 22:12:00,34.9,30.0,30.21,ESE,108,0.0,1.0,82,0.00,,,0.06,WUHU216DAVISVP2,2013-02-26 03:12:00,
2013-02-25 22:17:00,34.8,30.2,30.21,ESE,109,0.0,1.0,83,0.00,,,0.06,WUHU216DAVISVP2,2013-02-26 03:17:00,
2013-02-25 22:22:00,34.7,30.1,30.21,ESE,108,0.0,1.0,83,0.00,,,0.06,WUHU216DAVISVP2,2013-02-26 03:22:00,
2013-02-25 22:27:00,34.7,30.3,30.22,ESE,109,0.0,0.0,84,0.00,,,0.06,WUHU216DAVISVP2,2013-02-26 03:27:00,
2013-02-25 22:32:00,34.5,30.1,30.22,ESE,109,0.0,0.0,84,0.00,,,0.06,WUHU216DAVISVP2,2013-02-26 03:32:00,
2013-02-25 22:37:00,34.5,30.4,30.22,ESE,108,0.0,0.0,85,0.00,,,0.06,WUHU216DAVISVP2,2013-02-26 03:37:00,
2013-02-25 22:42:00,34.6,30.2,30.22,ESE,109,0.0,0.0,84,0.00,,,0.06,WUHU216DAVISVP2,2013-02-26 03:42:00,
2013-02-25 22:48:00,34.7,30.4,30.22,ESE,108,0.0,0.0,84,0.00,,,0.06,WUHU216DAVISVP2,2013-02-26 03:48:00,
2013-02-25 22:53:00,34.7,30.3,30.22,SE,143,1.0,1.0,84,0.00,,,0.06,WUHU216DAVISVP2,2013-02-26 03:53:00,
2013-02-25 22:58:00,34.7,30.3,30.22,SE,143,0.0,1.0,84,0.00,,,0.06,WUHU216DAVISVP2,2013-02-26 03:58:00,
2013-02-25 23:03:00,34.6,30.5,30.22,SE,143,0.0,1.0,85,0.00,,,0.06,WUHU216DAVISVP2,2013-02-26 04:03:00,
2013-02-25 23:08:00,34.5,30.4,30.23,SE,143,0.0,0.0,85,0.00,,,0.06,WUHU216DAVISVP2,2013-02-26 04:08:00,
2013-02-25 23:13:00,34.5,30.4,30.22,SE,143,0.0,0.0,85,0.00,,,0.06,WUHU216DAVISVP2,2013-02-26 04:13:00,
2013-02-25 23:18:00,34.4,30.3,30.23,SE,143,0.0,0.0,85,0.00,,,0.06,WUHU216DAVISVP2,2013-02-26 04:18:00,
2013-02-25 23:23:00,34.4,30.3,30.23,SE,143,0.0,0.0,85,0.00,,,0.06,WUHU216DAVISVP2,2013-02-26 04:23:00,
2013-02-25 23:28:00,34.3,30.2,30.23,SE,143,0.0,0.0,85,0.00,,,0.06,WUHU216DAVISVP2,2013-02-26 04:28:00,
2013-02-25 23:33:00,34.2,30.1,30.23,SE,143,0.0,0.0,85,0.00,,,0.06,WUHU216DAVISVP2,2013-02-26 04:33:00,
2013-02-25 23:38:00,34.3,30.2,30.23,SE,143,0.0,0.0,85,0.00,,,0.06,WUHU216DAVISVP2,2013-02-26 04:38:00,
2013-02-25 23:43:00,34.1,30.3,30.23,SE,143,0.0,0.0,86,0.00,,,0.06,WUHU216DAVISVP2,2013-02-26 04:43:00,
2013-02-25 23:48:00,34.0,29.9,30.23,SE,143,0.0,0.0,85,0.00,,,0.06,WUHU216DAVISVP2,2013-02-26 04:48:00,
2013-02-25 23:53:00,34.1,30.0,30.23,SE,143,0.0,0.0,85,0.00,,,0.06,WUHU216DAVISVP2,2013-02-26 04:53:00,
2013-02-25 23:58:00,34.0,30.2,30.23,SE,143,0.0,0.0,86,0.00,,,0.06,WUHU216DAVISVP2,2013-02-26 04:58:00,